map of IPI home
Great Circle Mapper logo
IPI - Airport
Location
City:  Ipiales, Nariño, Colombia
Near (Alt.):Aldana
Name:San Luis Airport
ICAO / IATA:SKIP / IPI

Details
Type:Airport (Aerodrome, Airfield)
Latitude:0°51'43"N (0.861972)
Longitude:77°40'18"W (-77.671724)
Elevation:9765 ft (2976 m)
Variation:3.87°W (WMM2015 magnetic declination)
-0.15° annual change
Runways:1
Longest:5774 × 92 ft (1760 × 28 m), paved

Time
Time Zone:UTC-5
Local Time:

Weather
METAR:SKIP 051200Z 00000KT 9999 5000SE VCSH FEW010 BKN018 09/09 A3046

Related Locations
Nearby:
Farthest:RGT: 12450 mi / 20037 km
Rengat [Japura], Sumatra, RI, ID

Find:

   beyond  
but within

Other Information
Maps:
NOTAMs:
Links:
Sources:

  
flag of Colombia
flag of Nariño
  

Sectional Chart

Flight Planning
at skyvector.com

Satellite Image

Google Maps Satellite view

 

Copyright © 2004-2015 Karl L. Swartz. All rights reserved.
The Great Circle Mapper name and logo are trademarks of the Great Circle Mapper.
All other trademarks mentioned herein belong to their respective owners.
Please see credits for attibutions and further copyright information.

  Follow gcmap on Facebook Follow gcmap on Twitter Follow gcmap on Google+

hCard Microformat

Geo Microformat